createdAt,value
2018-07-05T00:00:00.181Z,19.59
2018-07-05T00:01:09.997Z,19.7
2018-07-05T00:02:20.125Z,19.59
2018-07-05T00:03:29.945Z,19.6
2018-07-05T00:04:39.747Z,19.45
2018-07-05T00:05:49.824Z,19.44
2018-07-05T00:06:59.653Z,19.38
2018-07-05T00:08:09.511Z,19.38
2018-07-05T00:09:19.599Z,19.39
2018-07-05T00:10:29.679Z,19.35
2018-07-05T00:11:39.466Z,19.23
2018-07-05T00:12:49.548Z,19.26
2018-07-05T00:13:59.675Z,19.23
2018-07-05T00:15:09.480Z,19.08
2018-07-05T00:16:19.324Z,19.11
2018-07-05T00:17:29.378Z,19.2
2018-07-05T00:18:39.434Z,19.11
2018-07-05T00:19:49.556Z,19.04
2018-07-05T00:20:59.349Z,18.92
2018-07-05T00:22:09.421Z,18.96
2018-07-05T00:23:19.225Z,18.89
2018-07-05T00:24:29.310Z,18.83
2018-07-05T00:25:39.426Z,18.79
2018-07-05T00:26:49.508Z,18.79
2018-07-05T00:27:59.584Z,18.76
2018-07-05T00:29:09.389Z,18.76
2018-07-05T00:30:19.460Z,18.71
2018-07-05T00:31:29.016Z,18.7
2018-07-05T00:32:39.089Z,18.7
2018-07-05T00:33:49.164Z,18.6
2018-07-05T00:34:58.974Z,18.57
2018-07-05T00:36:08.781Z,18.58
2018-07-05T00:37:18.645Z,18.55
2018-07-05T00:38:28.718Z,18.6
2018-07-05T00:39:38.800Z,18.43
2018-07-05T00:40:48.612Z,18.48
2018-07-05T00:41:58.666Z,18.48
2018-07-05T00:43:08.532Z,18.51
2018-07-05T00:44:18.325Z,18.34
2018-07-05T00:45:28.117Z,18.41
2018-07-05T00:46:38.186Z,18.36
2018-07-05T00:47:47.988Z,18.33
2018-07-05T00:48:57.864Z,18.27
2018-07-05T00:50:07.238Z,18.3
2018-07-05T00:51:17.293Z,18.24
2018-07-05T00:52:27.097Z,18.28
2018-07-05T00:53:36.630Z,18.26
2018-07-05T00:54:46.202Z,18.18
2018-07-05T00:55:56.283Z,18.23
2018-07-05T00:57:06.088Z,18
2018-07-05T00:58:16.152Z,18.02
2018-07-05T00:59:25.952Z,17.95
2018-07-05T01:00:35.526Z,18
2018-07-05T01:01:45.602Z,17.95
2018-07-05T01:02:55.411Z,17.9
2018-07-05T01:04:05.490Z,17.87
2018-07-05T01:05:15.017Z,17.88
2018-07-05T01:06:25.177Z,17.84
2018-07-05T01:07:34.966Z,17.86
2018-07-05T01:08:44.773Z,17.75
2018-07-05T01:09:54.593Z,17.78
2018-07-05T01:11:04.656Z,17.66
2018-07-05T01:12:14.777Z,17.68
2018-07-05T01:13:24.581Z,17.65
2018-07-05T01:14:34.660Z,17.71
2018-07-05T01:15:44.445Z,17.68
2018-07-05T01:16:54.279Z,17.59
2018-07-05T01:18:04.385Z,17.56
2018-07-05T01:19:14.457Z,17.46
2018-07-05T01:20:24.526Z,17.46
2018-07-05T01:21:34.059Z,17.37
2018-07-05T01:22:43.858Z,17.31
2018-07-05T01:23:53.985Z,17.2
2018-07-05T01:25:04.040Z,17.22
2018-07-05T01:26:13.569Z,17.28
2018-07-05T01:27:23.358Z,17.19
2018-07-05T01:28:33.416Z,17.22
2018-07-05T01:29:42.991Z,17.22
2018-07-05T01:30:53.060Z,17.05
2018-07-05T01:32:03.135Z,17.17
2018-07-05T01:33:12.667Z,17.07
2018-07-05T01:34:22.744Z,17.1
2018-07-05T01:35:32.886Z,17.04
2018-07-05T01:36:42.955Z,17.02
2018-07-05T01:37:53.018Z,16.99
2018-07-05T01:39:03.092Z,16.94
2018-07-05T01:40:12.895Z,16.98
2018-07-05T01:41:23.030Z,16.89
2018-07-05T01:42:32.554Z,16.84
2018-07-05T01:43:42.624Z,16.87
2018-07-05T01:44:52.155Z,16.82
2018-07-05T01:46:02.224Z,16.84
2018-07-05T01:47:12.346Z,16.87
2018-07-05T01:48:22.139Z,16.83
2018-07-05T01:49:32.237Z,16.76
2018-07-05T01:50:42.022Z,16.73
2018-07-05T01:51:51.828Z,16.69
2018-07-05T01:53:01.406Z,16.72
2018-07-05T01:54:11.215Z,16.66
2018-07-05T01:55:21.267Z,16.69
2018-07-05T01:56:31.075Z,16.59
2018-07-05T01:57:41.150Z,16.66
2018-07-05T01:58:51.259Z,16.64
2018-07-05T02:00:01.064Z,16.69
2018-07-05T02:01:11.143Z,16.54
2018-07-05T02:02:21.217Z,16.59
2018-07-05T02:03:31.304Z,16.62
2018-07-05T02:04:41.143Z,16.54
2018-07-05T02:05:51.227Z,16.5
2018-07-05T02:07:01.307Z,16.54
2018-07-05T02:08:10.840Z,16.44
2018-07-05T02:09:20.920Z,16.4
2018-07-05T02:10:31.055Z,16.44
2018-07-05T02:11:41.121Z,16.43
2018-07-05T02:12:50.920Z,16.46
2018-07-05T02:14:00.722Z,16.41
2018-07-05T02:15:10.780Z,16.47
2018-07-05T02:16:20.628Z,16.41
2018-07-05T02:17:30.725Z,16.37
2018-07-05T02:18:40.519Z,16.41
2018-07-05T02:19:50.599Z,16.37
2018-07-05T02:21:00.678Z,16.41
2018-07-05T02:22:10.802Z,16.39
2018-07-05T02:23:20.874Z,16.41
2018-07-05T02:24:30.668Z,16.39
2018-07-05T02:25:40.747Z,16.34
2018-07-05T02:26:50.549Z,16.36
2018-07-05T02:28:00.407Z,16.31
2018-07-05T02:29:10.482Z,16.31
2018-07-05T02:30:20.294Z,16.28
2018-07-05T02:31:30.378Z,16.29
2018-07-05T02:32:40.521Z,16.34
2018-07-05T02:33:50.306Z,16.32
2018-07-05T02:35:00.377Z,16.29
2018-07-05T02:36:10.179Z,16.28
2018-07-05T02:37:19.971Z,16.28
2018-07-05T02:38:30.044Z,16.28
2018-07-05T02:39:40.166Z,16.31
2018-07-05T02:40:49.971Z,16.31
2018-07-05T02:42:00.039Z,16.21
2018-07-05T02:43:10.100Z,16.28
2018-07-05T02:44:19.896Z,16.17
2018-07-05T02:45:29.745Z,16.28
2018-07-05T02:46:39.835Z,16.18
2018-07-05T02:47:49.899Z,16.26
2018-07-05T02:48:59.987Z,16.22
2018-07-05T02:50:09.802Z,16.25
2018-07-05T02:51:19.908Z,16.28
2018-07-05T02:52:29.189Z,16.26
2018-07-05T02:53:39.297Z,16.29
2018-07-05T02:54:49.382Z,16.31
2018-07-05T02:55:59.184Z,16.26
2018-07-05T02:57:09.042Z,16.29
2018-07-05T02:58:19.093Z,16.24
2018-07-05T02:59:28.913Z,16.32
2018-07-05T03:03:33.307Z,16.39
2018-07-05T03:04:43.371Z,16.26
2018-07-05T03:05:53.445Z,16.25
2018-07-05T03:07:03.522Z,16.32
2018-07-05T03:08:13.116Z,16.31
2018-07-05T03:09:23.227Z,16.32
2018-07-05T03:10:33.041Z,16.28
2018-07-05T03:11:42.589Z,16.36
2018-07-05T03:12:52.388Z,16.37
2018-07-05T03:14:02.485Z,16.37
2018-07-05T03:15:12.338Z,16.43
2018-07-05T03:16:22.448Z,16.28
2018-07-05T03:17:32.257Z,16.29
2018-07-05T03:18:41.786Z,16.29
2018-07-05T03:19:51.873Z,16.34
2018-07-05T03:21:01.731Z,16.29
2018-07-05T03:22:11.555Z,16.36
2018-07-05T03:23:21.650Z,16.36
2018-07-05T03:24:31.450Z,16.36
2018-07-05T03:25:41.262Z,16.37
2018-07-05T03:26:51.104Z,16.34
2018-07-05T03:28:01.180Z,16.37
2018-07-05T03:29:10.987Z,16.39
2018-07-05T03:30:21.068Z,16.39
2018-07-05T03:31:31.173Z,16.46
2018-07-05T03:32:41.285Z,16.43
2018-07-05T03:33:51.360Z,16.44
2018-07-05T03:35:01.167Z,16.43
2018-07-05T03:36:11.242Z,16.47
2018-07-05T03:37:21.304Z,16.43
2018-07-05T03:38:31.435Z,16.5
2018-07-05T03:39:41.505Z,16.57
2018-07-05T03:40:51.564Z,16.51
2018-07-05T03:42:01.660Z,16.62
2018-07-05T03:43:11.775Z,16.55
2018-07-05T03:44:21.927Z,16.57
2018-07-05T03:45:31.999Z,16.59
2018-07-05T03:46:42.061Z,16.55
2018-07-05T03:47:51.853Z,16.64
2018-07-05T03:49:01.376Z,16.66
2018-07-05T03:50:11.227Z,16.76
2018-07-05T03:51:21.311Z,16.57
2018-07-05T03:52:30.850Z,16.57
2018-07-05T03:53:40.929Z,16.65
2018-07-05T03:54:51.004Z,16.79
2018-07-05T03:56:00.585Z,16.66
2018-07-05T03:57:09.841Z,16.72
2018-07-05T03:58:19.638Z,16.72
2018-07-05T03:59:29.436Z,16.69
2018-07-05T04:00:39.504Z,16.64
2018-07-05T04:01:49.346Z,16.72
2018-07-05T04:02:59.163Z,16.77
2018-07-05T04:04:09.233Z,16.77
2018-07-05T04:05:19.306Z,16.74
2018-07-05T04:06:29.364Z,16.82
2018-07-05T04:07:39.487Z,16.8
2018-07-05T04:08:49.566Z,16.86
2018-07-05T04:09:59.435Z,16.86
2018-07-05T04:11:08.423Z,16.86
2018-07-05T04:12:18.489Z,16.95
2018-07-05T04:13:28.609Z,16.87
2018-07-05T04:14:38.418Z,16.89
2018-07-05T04:15:48.282Z,16.95
2018-07-05T04:16:58.316Z,16.97
2018-07-05T04:18:07.592Z,16.95
2018-07-05T04:19:17.716Z,16.99
2018-07-05T04:20:27.523Z,16.98
2018-07-05T04:21:37.064Z,17.01
2018-07-05T04:22:46.859Z,17.09
2018-07-05T04:23:56.684Z,17.05
2018-07-05T04:25:06.824Z,17.09
2018-07-05T04:26:16.646Z,17.07
2018-07-05T04:27:26.460Z,17.17
2018-07-05T04:28:36.263Z,17.23
2018-07-05T04:29:46.345Z,17.2
2018-07-05T04:30:55.914Z,17.31
2018-07-05T04:32:05.447Z,17.22
2018-07-05T04:33:15.250Z,17.22
2018-07-05T04:34:25.046Z,17.2
2018-07-05T04:35:34.851Z,17.31
2018-07-05T04:36:44.966Z,17.34
2018-07-05T04:37:55.034Z,17.27
2018-07-05T04:39:04.551Z,17.37
2018-07-05T04:40:14.635Z,17.38
2018-07-05T04:41:24.436Z,17.38
2018-07-05T04:42:34.742Z,17.53
2018-07-05T04:43:44.981Z,17.49
2018-07-05T04:44:55.043Z,17.52
2018-07-05T04:46:04.307Z,17.57
2018-07-05T04:47:14.087Z,17.54
2018-07-05T04:48:23.926Z,17.54
2018-07-05T04:49:33.728Z,17.68
2018-07-05T04:50:43.812Z,17.63
2018-07-05T04:51:53.338Z,17.66
2018-07-05T04:53:03.399Z,17.78
2018-07-05T04:54:13.264Z,17.79
2018-07-05T04:55:23.154Z,17.76
2018-07-05T04:56:32.739Z,17.79
2018-07-05T04:57:42.278Z,17.8
2018-07-05T04:58:52.353Z,17.84
2018-07-05T05:00:02.478Z,17.82
2018-07-05T05:01:12.554Z,17.87
2018-07-05T05:02:22.711Z,17.93
2018-07-05T05:03:32.977Z,17.94
2018-07-05T05:04:42.509Z,17.88
2018-07-05T05:05:52.631Z,17.9
2018-07-05T05:07:02.695Z,17.93
2018-07-05T05:08:12.495Z,18
2018-07-05T05:09:22.293Z,17.91
2018-07-05T05:10:31.565Z,18.03
2018-07-05T05:11:41.411Z,17.95
2018-07-05T05:12:51.474Z,17.95
2018-07-05T05:14:01.549Z,18.05
2018-07-05T05:15:11.638Z,18.02
2018-07-05T05:16:21.432Z,18
2018-07-05T05:17:31.565Z,18.12
2018-07-05T05:18:41.627Z,18.11
2018-07-05T05:19:51.717Z,18.21
2018-07-05T05:21:01.796Z,18.21
2018-07-05T05:22:11.610Z,18.26
2018-07-05T05:23:21.179Z,18.31
2018-07-05T05:24:30.714Z,18.3
2018-07-05T05:25:40.791Z,18.41
2018-07-05T05:26:50.593Z,18.36
2018-07-05T05:28:00.402Z,18.34
2018-07-05T05:29:10.521Z,18.46
2018-07-05T05:30:20.586Z,18.48
2018-07-05T05:31:30.674Z,18.46
2018-07-05T05:32:40.742Z,18.42
2018-07-05T05:33:50.539Z,18.48
2018-07-05T05:35:00.102Z,18.41
2018-07-05T05:36:09.358Z,18.43
2018-07-05T05:37:19.452Z,18.51
2018-07-05T05:38:28.711Z,18.45
2018-07-05T05:39:38.511Z,18.58
2018-07-05T05:40:48.100Z,18.48
2018-07-05T05:41:58.168Z,18.6
2018-07-05T05:43:07.961Z,18.49
2018-07-05T05:44:17.769Z,18.6
2018-07-05T05:45:27.857Z,18.6
2018-07-05T05:46:37.989Z,18.46
2018-07-05T05:47:47.715Z,18.49
2018-07-05T05:48:57.788Z,18.61
2018-07-05T05:50:07.583Z,18.57
2018-07-05T05:51:17.113Z,18.61
2018-07-05T05:52:26.975Z,18.68
2018-07-05T05:53:36.773Z,18.64
2018-07-05T05:54:46.848Z,18.7
2018-07-05T05:55:56.929Z,18.74
2018-07-05T05:57:06.743Z,18.74
2018-07-05T05:58:16.057Z,18.68
2018-07-05T05:59:25.617Z,18.76
2018-07-05T06:00:35.702Z,18.82
2018-07-05T06:01:45.866Z,18.74
2018-07-05T06:02:55.718Z,18.81
2018-07-05T06:04:05.820Z,18.78
2018-07-05T06:05:15.923Z,18.86
2018-07-05T06:06:25.992Z,18.89
2018-07-05T06:07:35.797Z,18.78
2018-07-05T06:08:45.884Z,18.86
2018-07-05T06:09:56.017Z,19.01
2018-07-05T06:11:05.536Z,19
2018-07-05T06:12:15.609Z,18.98
2018-07-05T06:13:25.407Z,18.91
2018-07-05T06:14:34.950Z,18.96
2018-07-05T06:15:44.795Z,18.96
2018-07-05T06:16:54.405Z,19.08
2018-07-05T06:18:04.209Z,19.17
2018-07-05T06:19:14.293Z,19.22
2018-07-05T06:20:24.354Z,19.16
2018-07-05T06:21:34.206Z,19.09
2018-07-05T06:22:44.275Z,19.22
2018-07-05T06:23:54.071Z,19.15
2018-07-05T06:25:03.885Z,19.23
2018-07-05T06:26:13.690Z,19.24
2018-07-05T06:27:23.536Z,19.2
2018-07-05T06:28:33.351Z,19.37
2018-07-05T06:29:43.135Z,19.42
2018-07-05T06:30:52.655Z,19.52
2018-07-05T06:32:02.742Z,19.42
2018-07-05T06:33:12.606Z,19.57
2018-07-05T06:34:22.681Z,19.59
2018-07-05T06:35:32.752Z,19.56
2018-07-05T06:36:42.817Z,19.6
2018-07-05T06:37:52.630Z,19.63
2018-07-05T06:39:02.885Z,19.66
2018-07-05T06:40:12.966Z,19.62
2018-07-05T06:41:22.897Z,19.7
2018-07-05T06:42:32.971Z,19.71
2018-07-05T06:43:42.775Z,19.75
2018-07-05T06:44:52.633Z,19.74
2018-07-05T06:46:02.714Z,19.82
2018-07-05T06:47:11.968Z,19.78
2018-07-05T06:48:22.050Z,19.82
2018-07-05T06:49:32.489Z,19.81
2018-07-05T06:50:42.607Z,19.89
2018-07-05T06:51:52.448Z,19.74
2018-07-05T06:53:02.575Z,19.78
2018-07-05T06:54:12.690Z,19.96
2018-07-05T06:55:22.751Z,19.99
2018-07-05T06:56:32.609Z,20
2018-07-05T06:57:42.683Z,20.14
2018-07-05T06:58:52.773Z,20.11
2018-07-05T07:00:02.834Z,20.12
2018-07-05T07:01:12.383Z,20.22
2018-07-05T07:02:22.243Z,20.29
2018-07-05T07:03:32.049Z,20.27
2018-07-05T07:04:42.118Z,20.36
2018-07-05T07:05:52.184Z,20.33
2018-07-05T07:07:01.470Z,20.46
2018-07-05T07:08:11.607Z,20.48
2018-07-05T07:09:21.409Z,20.52
2018-07-05T07:10:31.218Z,20.44
2018-07-05T07:11:41.013Z,20.64
2018-07-05T07:12:51.112Z,20.63
2018-07-05T07:14:00.665Z,20.6
2018-07-05T07:15:10.474Z,20.63
2018-07-05T07:16:20.561Z,20.75
2018-07-05T07:17:30.650Z,20.85
2018-07-05T07:18:40.720Z,20.75
2018-07-05T07:19:50.841Z,20.85
2018-07-05T07:21:00.917Z,20.86
2018-07-05T07:22:10.731Z,20.88
2018-07-05T07:23:20.516Z,20.92
2018-07-05T07:24:30.047Z,20.92
2018-07-05T07:25:40.164Z,20.92
2018-07-05T07:26:50.248Z,20.96
2018-07-05T07:28:00.046Z,21.05
2018-07-05T07:29:09.890Z,21.08
2018-07-05T07:30:19.961Z,21.07
2018-07-05T07:31:29.761Z,21.2
2018-07-05T07:32:39.968Z,21.14
2018-07-05T07:33:50.070Z,21.13
2018-07-05T07:35:00.158Z,21.22
2018-07-05T07:36:09.703Z,21.23
2018-07-05T07:37:19.572Z,21.17
2018-07-05T07:38:29.859Z,21.28
2018-07-05T07:39:39.944Z,21.38
2018-07-05T07:40:50.036Z,21.4
2018-07-05T07:41:59.840Z,21.38
2018-07-05T07:43:09.432Z,21.44
2018-07-05T07:44:19.236Z,21.44
2018-07-05T07:45:29.571Z,21.54
2018-07-05T07:46:39.783Z,21.56
2018-07-05T07:47:49.316Z,21.62
2018-07-05T07:48:58.880Z,21.58
2018-07-05T07:50:08.398Z,21.72
2018-07-05T07:51:18.577Z,21.6
2018-07-05T07:52:28.485Z,21.75
2018-07-05T07:53:37.759Z,21.7
2018-07-05T07:54:47.595Z,21.77
2018-07-05T07:55:57.653Z,21.72
2018-07-05T07:57:07.462Z,21.72
2018-07-05T07:58:17.732Z,21.8
2018-07-05T07:59:27.772Z,21.88
2018-07-05T08:00:37.630Z,21.85
2018-07-05T08:01:47.163Z,21.89
2018-07-05T08:02:57.226Z,21.92
2018-07-05T08:04:07.324Z,22.03
2018-07-05T08:05:16.860Z,22.06
2018-07-05T08:06:26.713Z,22.1
2018-07-05T08:07:36.532Z,22.22
2018-07-05T08:08:46.608Z,22.19
2018-07-05T08:09:56.420Z,22.25
2018-07-05T08:11:06.247Z,22.19
2018-07-05T08:12:16.370Z,22.3
2018-07-05T08:13:25.678Z,22.26
2018-07-05T08:14:35.473Z,22.33
2018-07-05T08:15:45.552Z,22.33
2018-07-05T08:16:55.356Z,22.41
2018-07-05T08:18:04.955Z,22.37
2018-07-05T08:19:14.770Z,22.43
2018-07-05T08:20:24.973Z,22.44
2018-07-05T08:21:35.215Z,22.47
2018-07-05T08:22:45.032Z,22.51
2018-07-05T08:23:55.171Z,22.58
2018-07-05T08:25:04.965Z,22.56
2018-07-05T08:26:15.059Z,22.56
2018-07-05T08:27:24.897Z,22.53
2018-07-05T08:28:34.709Z,22.53
2018-07-05T08:29:44.857Z,22.58
2018-07-05T08:30:54.912Z,22.56
2018-07-05T08:32:04.705Z,22.62
2018-07-05T08:33:14.244Z,22.71
2018-07-05T08:34:24.322Z,22.67
2018-07-05T08:35:34.454Z,22.76
2018-07-05T08:36:44.545Z,22.81
2018-07-05T08:37:54.761Z,22.86
2018-07-05T08:39:04.608Z,22.84
2018-07-05T08:40:14.683Z,22.89
2018-07-05T08:41:24.806Z,22.88
2018-07-05T08:42:34.611Z,22.88
2018-07-05T08:43:44.687Z,22.93
2018-07-05T08:44:54.635Z,22.84
2018-07-05T08:46:04.863Z,22.88
2018-07-05T08:47:14.711Z,22.92
2018-07-05T08:48:24.796Z,22.86
2018-07-05T08:49:34.583Z,22.92
2018-07-05T08:50:44.394Z,22.84
2018-07-05T08:51:54.193Z,22.92
2018-07-05T08:53:04.309Z,22.89
2018-07-05T08:54:14.105Z,22.93
2018-07-05T08:55:23.910Z,22.88
2018-07-05T08:56:34.000Z,23.04
2018-07-05T08:57:44.080Z,22.95
2018-07-05T08:58:54.194Z,23.04
2018-07-05T09:00:05.245Z,23.04
2018-07-05T09:01:15.054Z,23.02
2018-07-05T09:02:25.152Z,22.96
2018-07-05T09:03:35.236Z,23.11
2018-07-05T09:04:45.347Z,23.17
2018-07-05T09:05:55.404Z,23.13
2018-07-05T09:07:05.490Z,23.16
2018-07-05T09:08:47.400Z,23.23
2018-07-05T09:09:57.536Z,23.29
2018-07-05T09:11:07.621Z,23.37
2018-07-05T09:12:17.434Z,23.34
2018-07-05T09:13:27.511Z,23.4
2018-07-05T09:14:37.584Z,23.33
2018-07-05T09:15:47.173Z,23.45
2018-07-05T09:16:56.971Z,23.37
2018-07-05T09:18:07.182Z,23.42
2018-07-05T09:19:17.162Z,23.66
2018-07-05T09:20:26.705Z,23.64
2018-07-05T09:21:36.844Z,23.73
2018-07-05T09:22:46.903Z,23.73
2018-07-05T09:23:56.168Z,23.77
2018-07-05T09:25:06.233Z,23.84
2018-07-05T09:26:16.326Z,23.86
2018-07-05T09:27:25.923Z,23.89
2018-07-05T09:28:35.730Z,23.91
2018-07-05T09:29:45.795Z,23.94
2018-07-05T09:30:55.332Z,23.99
2018-07-05T09:32:04.621Z,24.01
2018-07-05T09:33:14.752Z,24.03
2018-07-05T09:34:24.835Z,23.95
2018-07-05T09:35:34.646Z,24.03
2018-07-05T09:36:44.714Z,24.06
2018-07-05T09:37:54.526Z,24.04
2018-07-05T09:39:04.119Z,24.18
2018-07-05T09:40:13.924Z,24.18
2018-07-05T09:41:23.743Z,24.29
2018-07-05T09:42:33.283Z,24.31
2018-07-05T09:43:43.363Z,24.31
2018-07-05T09:44:53.488Z,24.31
2018-07-05T09:46:03.030Z,24.37
2018-07-05T09:47:12.837Z,24.41
2018-07-05T09:48:22.921Z,24.47
2018-07-05T09:49:32.706Z,24.53
2018-07-05T09:50:42.561Z,24.61
2018-07-05T09:51:52.360Z,24.58
2018-07-05T09:53:02.180Z,24.69
2018-07-05T09:54:11.981Z,24.69
2018-07-05T09:55:21.773Z,24.71
2018-07-05T09:56:31.645Z,24.69
2018-07-05T09:57:41.710Z,24.69
2018-07-05T09:58:51.792Z,24.75
2018-07-05T10:00:01.606Z,24.69
2018-07-05T10:01:11.423Z,24.66
2018-07-05T10:02:21.557Z,24.75
2018-07-05T10:03:31.692Z,24.75
2018-07-05T10:04:41.738Z,24.78
2018-07-05T10:05:51.823Z,24.84
2018-07-05T10:07:01.891Z,24.85
2018-07-05T10:08:11.759Z,24.92
2018-07-05T10:09:21.015Z,24.93
2018-07-05T10:10:30.940Z,24.99
2018-07-05T10:11:40.480Z,25.07
2018-07-05T10:12:50.565Z,25.12
2018-07-05T10:14:00.198Z,25.04
2018-07-05T10:15:09.729Z,25.14
2018-07-05T10:16:19.814Z,25.15
2018-07-05T10:17:29.890Z,25.15
2018-07-05T10:18:39.695Z,25.15
2018-07-05T10:19:49.562Z,25.3
2018-07-05T10:20:59.652Z,25.29
2018-07-05T10:22:09.463Z,25.26
2018-07-05T10:23:19.005Z,25.3
2018-07-05T10:24:28.822Z,25.4
2018-07-05T10:25:38.420Z,25.46
2018-07-05T10:26:48.316Z,25.44
2018-07-05T10:27:57.920Z,25.48
2018-07-05T10:29:08.005Z,25.41
2018-07-05T10:30:18.112Z,25.43
2018-07-05T10:31:28.229Z,25.43
2018-07-05T10:32:37.777Z,25.39
2018-07-05T10:33:47.875Z,25.49
2018-07-05T10:34:57.407Z,25.39
2018-07-05T10:36:06.949Z,25.44
2018-07-05T10:37:16.531Z,25.43
2018-07-05T10:38:26.338Z,25.4
2018-07-05T10:39:36.231Z,25.48
2018-07-05T10:40:46.449Z,25.43
2018-07-05T10:41:56.253Z,25.48
2018-07-05T10:43:06.383Z,25.46
2018-07-05T10:44:16.461Z,25.59
2018-07-05T10:45:26.278Z,25.55
2018-07-05T10:46:35.535Z,25.61
2018-07-05T10:47:45.319Z,25.59
2018-07-05T10:48:55.457Z,25.61
2018-07-05T10:50:05.525Z,25.76
2018-07-05T10:51:15.324Z,25.67
2018-07-05T10:52:25.113Z,25.76
2018-07-05T10:53:35.166Z,25.74
2018-07-05T10:54:44.760Z,25.77
2018-07-05T10:55:54.593Z,25.77
2018-07-05T10:57:04.410Z,25.8
2018-07-05T10:58:14.213Z,25.81
2018-07-05T10:59:24.296Z,25.96
2018-07-05T11:00:34.150Z,25.96
2018-07-05T11:01:44.232Z,25.99
2018-07-05T11:02:53.782Z,26.03
2018-07-05T11:04:03.916Z,26.07
2018-07-05T11:05:13.165Z,26.07
2018-07-05T11:06:22.739Z,26.11
2018-07-05T11:07:32.655Z,26.04
2018-07-05T11:08:42.469Z,26.06
2018-07-05T11:09:52.551Z,26.15
2018-07-05T11:11:02.347Z,26.18
2018-07-05T11:12:12.216Z,26.26
2018-07-05T11:13:22.281Z,26.29
2018-07-05T11:14:31.947Z,26.34
2018-07-05T11:15:42.599Z,26.42
2018-07-05T11:16:52.429Z,26.44
2018-07-05T11:18:02.302Z,26.46
2018-07-05T11:19:11.829Z,26.55
2018-07-05T11:20:21.906Z,26.52
2018-07-05T11:21:31.446Z,26.59
2018-07-05T11:22:40.705Z,26.66
2018-07-05T11:23:50.555Z,26.71
2018-07-05T11:25:00.352Z,26.82
2018-07-05T11:26:09.891Z,26.83
2018-07-05T11:27:19.720Z,26.92
2018-07-05T11:28:29.544Z,26.85
2018-07-05T11:29:39.404Z,27.04
2018-07-05T11:30:49.218Z,26.82
2018-07-05T11:31:58.781Z,26.86
2018-07-05T11:33:08.042Z,26.83
2018-07-05T11:34:18.108Z,26.93
2018-07-05T11:35:28.245Z,27.16
2018-07-05T11:36:38.041Z,27.19
2018-07-05T11:37:48.094Z,27.41
2018-07-05T11:38:58.154Z,27.76
2018-07-05T11:40:07.976Z,28.16
2018-07-05T11:41:18.101Z,28.38
2018-07-05T11:42:27.997Z,28.9
2018-07-05T11:43:38.068Z,29.18
2018-07-05T11:44:48.150Z,29.61
2018-07-05T11:45:58.230Z,30.08
2018-07-05T11:47:08.417Z,30.43
2018-07-05T11:48:18.524Z,30.91
2018-07-05T11:49:28.625Z,31.11
2018-07-05T11:50:38.725Z,31.42
2018-07-05T11:51:48.547Z,31.85
2018-07-05T11:52:58.411Z,32.35
2018-07-05T11:54:08.498Z,32.66
2018-07-05T11:55:18.303Z,33.13
2018-07-05T11:56:28.365Z,33.63
2018-07-05T11:57:38.449Z,33.95
2018-07-05T11:58:48.227Z,34.35
2018-07-05T11:59:58.323Z,34.58
2018-07-05T12:01:08.143Z,34.91
2018-07-05T12:02:17.701Z,35.42
2018-07-05T12:03:27.789Z,35.74
2018-07-05T12:04:37.378Z,35.97
2018-07-05T12:05:47.466Z,36.05
2018-07-05T12:06:57.024Z,36.43
2018-07-05T12:08:06.840Z,36.63
2018-07-05T12:09:16.659Z,37.09
2018-07-05T12:10:26.782Z,37.25
2018-07-05T12:11:36.882Z,37.28
2018-07-05T12:12:46.962Z,37.23
2018-07-05T12:13:56.773Z,37.26
2018-07-05T12:15:06.599Z,37.45
2018-07-05T12:16:16.204Z,37.71
2018-07-05T12:17:26.033Z,37.79
2018-07-05T12:18:36.052Z,38.09
2018-07-05T12:19:46.147Z,37.98
2018-07-05T12:20:56.244Z,38.16
2018-07-05T12:22:06.119Z,38.22
2018-07-05T12:23:15.939Z,37.91
2018-07-05T12:24:25.865Z,37.83
2018-07-05T12:25:35.688Z,37.98
2018-07-05T12:26:45.503Z,38.16
2018-07-05T12:27:55.355Z,38.48
2018-07-05T12:29:05.548Z,38.63
2018-07-05T12:30:15.467Z,38.56
2018-07-05T12:31:25.296Z,38.73
2018-07-05T12:32:35.115Z,38.77
2018-07-05T12:33:45.354Z,38.82
2018-07-05T12:34:54.922Z,38.38
2018-07-05T12:36:04.760Z,38.5
2018-07-05T12:37:14.856Z,38.32
2018-07-05T12:38:24.932Z,38.13
2018-07-05T12:39:34.946Z,38.34
2018-07-05T12:40:44.767Z,38.63
2018-07-05T12:41:54.866Z,38.82
2018-07-05T12:43:04.691Z,38.69
2018-07-05T12:44:14.509Z,39
2018-07-05T12:45:24.387Z,38.92
2018-07-05T12:46:33.934Z,39.23
2018-07-05T12:47:43.470Z,39.49
2018-07-05T12:48:53.297Z,39.76
2018-07-05T12:50:03.101Z,40.01
2018-07-05T12:51:12.973Z,40.24
2018-07-05T12:52:23.060Z,40.57
2018-07-05T12:53:32.897Z,40.43
2018-07-05T12:54:42.998Z,40.57
2018-07-05T12:55:52.831Z,40.52
2018-07-05T12:57:02.690Z,40.58
2018-07-05T12:58:12.774Z,40.73
2018-07-05T12:59:22.652Z,40.88
2018-07-05T13:00:31.926Z,40.71
2018-07-05T13:01:41.750Z,40.85
2018-07-05T13:02:51.913Z,40.76
2018-07-05T13:04:02.240Z,40.61
2018-07-05T13:05:12.086Z,40.51
2018-07-05T13:06:22.164Z,40.36
2018-07-05T13:07:32.273Z,40.49
2018-07-05T13:08:42.412Z,40.78
2018-07-05T13:09:52.509Z,40.77
2018-07-05T13:11:02.592Z,40.61
2018-07-05T13:12:12.402Z,40.69
2018-07-05T13:13:22.503Z,40.85
2018-07-05T13:14:32.640Z,40.98
2018-07-05T13:15:42.467Z,40.71
2018-07-05T13:16:52.560Z,40.88
2018-07-05T13:18:02.362Z,40.7
2018-07-05T13:19:12.225Z,40.61
2018-07-05T13:20:22.353Z,40.69
2018-07-05T13:21:32.179Z,40.83
2018-07-05T13:22:42.284Z,40.86
2018-07-05T13:23:52.105Z,40.86
2018-07-05T13:25:01.943Z,40.81
2018-07-05T13:26:11.802Z,40.86
2018-07-05T13:27:21.897Z,40.55
2018-07-05T13:28:31.716Z,40.61
2018-07-05T13:29:41.544Z,40.49
2018-07-05T13:30:51.360Z,40.64
2018-07-05T13:32:00.443Z,40.34
2018-07-05T13:33:10.460Z,40.22
2018-07-05T13:34:20.694Z,40.22
2018-07-05T13:35:30.796Z,40.34
2018-07-05T13:36:40.888Z,40.26
2018-07-05T13:37:49.675Z,40.28
2018-07-05T13:38:59.513Z,40.57
2018-07-05T13:40:09.356Z,40.69
2018-07-05T13:41:19.189Z,40.89
2018-07-05T13:42:29.004Z,41.03
2018-07-05T13:43:39.131Z,41.17
2018-07-05T13:44:49.213Z,41.46
2018-07-05T13:45:59.021Z,41.57
2018-07-05T13:47:09.024Z,41.9
2018-07-05T13:48:18.953Z,41.58
2018-07-05T13:49:28.289Z,41.6
2018-07-05T13:50:38.390Z,41.65
2018-07-05T13:51:47.947Z,41.22
2018-07-05T13:52:57.788Z,41.37
2018-07-05T13:54:07.260Z,41.42
2018-07-05T13:55:17.127Z,41.58
2018-07-05T13:56:27.226Z,41.78
2018-07-05T13:57:37.317Z,41.68
2018-07-05T13:58:47.158Z,41.93
2018-07-05T13:59:57.258Z,42.07
2018-07-05T14:01:07.115Z,42.05
2018-07-05T14:02:16.936Z,42.24
2018-07-05T14:03:27.053Z,42.37
2018-07-05T14:04:37.259Z,42.43
2018-07-05T14:05:47.346Z,42.49
2018-07-05T14:06:57.477Z,42.32
2018-07-05T14:08:07.316Z,42.44
2018-07-05T14:09:16.865Z,42.68
2018-07-05T14:10:26.965Z,42.37
2018-07-05T14:11:36.792Z,42.37
2018-07-05T14:12:46.952Z,42.61
2018-07-05T14:13:56.762Z,42.68
2018-07-05T14:15:06.847Z,42.4
2018-07-05T14:16:16.651Z,42.29
2018-07-05T14:17:26.737Z,42.47
2018-07-05T14:18:36.894Z,42.06
2018-07-05T14:19:47.000Z,41.88
2018-07-05T14:20:56.820Z,42
2018-07-05T14:22:06.644Z,41.88
2018-07-05T14:23:16.182Z,42.02
2018-07-05T14:24:26.066Z,41.99
2018-07-05T14:25:35.615Z,41.9
2018-07-05T14:26:45.439Z,41.87
2018-07-05T14:27:55.516Z,41.9
2018-07-05T14:29:05.605Z,42
2018-07-05T14:30:15.495Z,42
2018-07-05T14:31:25.683Z,42.05
2018-07-05T14:32:36.188Z,41.8
2018-07-05T14:33:46.015Z,41.93
2018-07-05T14:34:56.124Z,42.21
2018-07-05T14:36:06.249Z,42.44
2018-07-05T14:37:16.350Z,42.36
2018-07-05T14:38:26.180Z,41.76
2018-07-05T14:39:36.262Z,41.73
2018-07-05T14:40:46.351Z,42.02
2018-07-05T14:41:56.506Z,42.12
2018-07-05T14:43:06.325Z,41.84
2018-07-05T14:44:16.446Z,41.88
2018-07-05T14:45:26.543Z,41.8
2018-07-05T14:46:36.370Z,41.86
2018-07-05T14:47:46.226Z,41.53
2018-07-05T14:48:56.048Z,41.51
2018-07-05T14:50:05.863Z,41.64
2018-07-05T14:51:15.681Z,41.73
2018-07-05T14:52:26.019Z,41.8
2018-07-05T14:53:36.173Z,41.53
2018-07-05T14:54:45.744Z,41.26
2018-07-05T14:55:55.849Z,41.36
2018-07-05T14:57:05.659Z,41.53
2018-07-05T14:58:14.950Z,41.45
2018-07-05T14:59:24.832Z,41.46
2018-07-05T15:00:34.649Z,41.41
2018-07-05T15:01:44.571Z,41.17
2018-07-05T15:02:54.765Z,41.52
2018-07-05T15:04:04.601Z,41.14
2018-07-05T15:05:14.882Z,41.23
2018-07-05T15:06:24.991Z,41.39